Ana Sayfa
METAR-TAF:

METAR-TAF

Havaalanları :

Lüksemburg-Findel Havalimanı

Lüksemburg, Lüksemburg

Enlem: 49-37N, Boylam: 006-13E, yükseklik: 376 m

Güncel hava durumu gözlemi

Rapor saat 14:20 UTC de 33 dakika önce yapıldı.
Rüzgar kuzeydoğudan 8 kt
Sıcaklık -1°C
Nem 69%
Basınç 1014 hPa
Görüş mesafesi 10 km veya daha fazla
1500 m altında bulut yok ve kümülonimbus yok

METAR: ELLX 201420Z 05008KT CAVOK M01/M06 Q1014 NOSIG

Saat: 15:53 (14:53 UTC)

Tahmin

Rapor saat 11:00 UTC de 3 saat ve 53 dakika önce yapıldı.
Ayın 20'si saat 12 UTC'den ayın 21'si saat 18 UTC'ye kadar geçerli Tahmin
Rüzgar kuzeydoğudan 8 kt
Görüş mesafesi 10 km veya daha fazla
1500 m altında bulut yok ve kümülonimbus yok

TAF: ELLX 201100Z 2012/2118 05008KT CAVOK

4.000'den fazla havaalanı için hava durumu gözlemleri ve tahminleri (METAR ve TAF raporları).

Kullanılabilir istasyonlar harita üzerinde sarı ve kırmızı noktalarla gösterilir.

İstasyonun adını görmek için fareyi noktanın üzerinde gezdirin.

Sonrasında hava gözlem ve tahminlerini görmek için tıklayın.

Haritayı değiştirmek için: yaklaştırmak için siyah artı işaretli yeşil düğmeye ve uzaklaştırmak için de eksi işaretli düğmeye hızla tıklayın; bitişik haritalar için yeşil okları kullanın.


METAR-TAF: